createdAt,value
2018-12-30T00:00:22.562Z,26.37
2018-12-30T00:02:55.018Z,27.27
2018-12-30T00:05:25.984Z,27.43
2018-12-30T00:07:56.521Z,28.20
2018-12-30T00:10:27.172Z,24.53
2018-12-30T00:12:57.873Z,26.47
2018-12-30T00:15:28.587Z,26.20
2018-12-30T00:17:59.140Z,25.83
2018-12-30T00:20:30.403Z,26.73
2018-12-30T00:23:01.298Z,26.93
2018-12-30T00:25:31.893Z,24.00
2018-12-30T00:28:02.872Z,25.90
2018-12-30T00:30:33.450Z,26.20
2018-12-30T00:33:04.366Z,24.93
2018-12-30T00:35:35.250Z,26.43
2018-12-30T00:38:06.496Z,25.37
2018-12-30T00:40:45.935Z,25.50
2018-12-30T00:43:16.949Z,23.73
2018-12-30T00:45:47.676Z,24.43
2018-12-30T00:48:18.849Z,23.87
2018-12-30T00:50:49.247Z,24.10
2018-12-30T00:53:19.930Z,24.93
2018-12-30T00:55:50.739Z,23.43
2018-12-30T00:58:21.419Z,24.67
2018-12-30T01:00:52.293Z,23.40
2018-12-30T01:03:22.807Z,23.87
2018-12-30T01:05:53.444Z,23.23
2018-12-30T01:08:25.725Z,24.17
2018-12-30T01:10:56.353Z,24.77
2018-12-30T01:13:27.138Z,24.70
2018-12-30T01:15:57.717Z,24.93
2018-12-30T01:18:28.320Z,24.77
2018-12-30T01:21:00.872Z,23.23
2018-12-30T01:23:31.262Z,24.37
2018-12-30T01:26:01.747Z,23.53
2018-12-30T01:28:32.478Z,25.37
2018-12-30T01:31:03.408Z,25.83
2018-12-30T01:33:33.843Z,26.97
2018-12-30T01:36:04.866Z,26.50
2018-12-30T01:38:38.055Z,27.73
2018-12-30T01:41:08.501Z,27.57
2018-12-30T01:43:39.332Z,28.60
2018-12-30T01:46:09.771Z,27.47
2018-12-30T01:48:40.251Z,27.50
2018-12-30T01:51:10.990Z,28.10
2018-12-30T01:53:41.802Z,27.60
2018-12-30T01:56:12.647Z,28.20
2018-12-30T01:58:43.271Z,28.27
2018-12-30T02:01:14.409Z,29.33
2018-12-30T02:03:44.904Z,30.33
2018-12-30T02:06:15.734Z,29.87
2018-12-30T02:08:46.801Z,28.87
2018-12-30T02:11:17.514Z,30.20
2018-12-30T02:13:48.606Z,29.43
2018-12-30T02:16:19.161Z,28.33
2018-12-30T02:18:49.908Z,30.77
2018-12-30T02:21:20.444Z,30.20
2018-12-30T02:23:52.262Z,29.37
2018-12-30T02:26:22.830Z,31.30
2018-12-30T02:28:54.442Z,30.53
2018-12-30T02:31:24.942Z,30.17
2018-12-30T02:36:49.678Z,29.33
2018-12-30T02:39:20.254Z,30.37
2018-12-30T02:41:51.486Z,28.80
2018-12-30T02:44:25.138Z,28.87
2018-12-30T02:46:55.642Z,27.03
2018-12-30T02:49:26.141Z,28.43
2018-12-30T02:51:56.613Z,30.13
2018-12-30T02:54:27.449Z,28.13
2018-12-30T02:56:57.905Z,27.53
2018-12-30T02:59:28.828Z,29.37
2018-12-30T03:01:59.574Z,31.00
2018-12-30T03:04:30.271Z,28.97
2018-12-30T03:07:01.008Z,29.07
2018-12-30T03:09:34.531Z,31.97
2018-12-30T03:12:05.658Z,31.10
2018-12-30T03:14:36.073Z,30.53
2018-12-30T03:17:06.845Z,30.97
2018-12-30T03:19:37.377Z,32.67
2018-12-30T03:22:10.256Z,33.63
2018-12-30T03:24:41.014Z,33.80
2018-12-30T03:27:11.799Z,32.03
2018-12-30T03:29:42.219Z,31.77
2018-12-30T03:32:13.360Z,32.87
2018-12-30T03:34:45.555Z,32.73
2018-12-30T03:37:16.017Z,32.73
2018-12-30T03:39:46.887Z,33.70
2018-12-30T03:42:17.502Z,37.20
2018-12-30T03:44:48.062Z,34.80
2018-12-30T03:47:18.582Z,36.30
2018-12-30T03:49:49.223Z,37.50
2018-12-30T03:52:19.834Z,35.07
2018-12-30T03:54:50.708Z,37.50
2018-12-30T03:57:21.371Z,37.57
2018-12-30T03:59:51.853Z,36.73
2018-12-30T04:02:22.619Z,37.73
2018-12-30T04:04:53.266Z,35.13
2018-12-30T04:07:23.914Z,37.10
2018-12-30T04:09:54.713Z,36.03
2018-12-30T04:12:25.328Z,36.67
2018-12-30T04:14:56.314Z,33.90
2018-12-30T04:17:26.902Z,35.20
2018-12-30T04:19:57.768Z,35.87
2018-12-30T04:22:28.282Z,36.10
2018-12-30T04:24:58.685Z,34.97
2018-12-30T04:27:29.448Z,36.83
2018-12-30T04:29:59.830Z,34.30
2018-12-30T04:32:30.571Z,34.50
2018-12-30T04:35:01.016Z,36.03
2018-12-30T04:37:31.975Z,32.87
2018-12-30T04:40:02.461Z,35.80
2018-12-30T04:42:33.108Z,34.93
2018-12-30T04:45:03.803Z,33.07
2018-12-30T04:47:34.522Z,33.60
2018-12-30T04:50:05.445Z,34.13
2018-12-30T04:52:36.072Z,34.03
2018-12-30T04:55:06.752Z,32.63
2018-12-30T04:57:37.330Z,33.43
2018-12-30T05:00:08.088Z,32.07
2018-12-30T05:02:38.914Z,32.47
2018-12-30T05:05:10.608Z,32.73
2018-12-30T05:07:41.386Z,33.17
2018-12-30T05:10:11.910Z,31.73
2018-12-30T05:12:42.680Z,33.47
2018-12-30T05:15:13.223Z,34.30
2018-12-30T05:17:44.061Z,33.67
2018-12-30T05:20:14.679Z,30.90
2018-12-30T05:22:45.503Z,33.07
2018-12-30T05:25:15.926Z,32.30
2018-12-30T05:27:46.714Z,33.07
2018-12-30T05:30:17.398Z,32.43
2018-12-30T05:32:48.381Z,32.60
2018-12-30T05:35:18.885Z,32.17
2018-12-30T05:37:50.403Z,32.17
2018-12-30T05:40:32.273Z,32.83
2018-12-30T05:43:02.845Z,35.77
2018-12-30T05:45:33.793Z,35.47
2018-12-30T05:48:04.269Z,36.23
2018-12-30T05:50:35.089Z,35.30
2018-12-30T05:53:06.204Z,36.97
2018-12-30T05:55:36.912Z,35.33
2018-12-30T05:58:07.847Z,36.97
2018-12-30T06:00:38.257Z,36.20
2018-12-30T06:03:08.765Z,33.90
2018-12-30T06:05:39.332Z,33.20
2018-12-30T06:08:09.896Z,34.37
2018-12-30T06:10:40.782Z,33.37
2018-12-30T06:13:11.204Z,33.13
2018-12-30T06:15:41.961Z,32.43
2018-12-30T06:18:12.403Z,32.03
2018-12-30T06:20:43.046Z,33.93
2018-12-30T06:23:13.449Z,33.10
2018-12-30T06:25:44.134Z,32.73
2018-12-30T06:28:14.581Z,31.77
2018-12-30T06:30:45.393Z,31.67
2018-12-30T06:33:16.082Z,30.70
2018-12-30T06:35:46.806Z,31.00
2018-12-30T06:38:18.582Z,32.23
2018-12-30T06:40:49.094Z,32.27
2018-12-30T06:43:19.537Z,33.13
2018-12-30T06:45:50.147Z,33.07
2018-12-30T06:48:20.839Z,34.60
2018-12-30T06:50:51.249Z,33.70
2018-12-30T06:53:22.031Z,33.03
2018-12-30T06:55:52.514Z,33.60
2018-12-30T06:58:23.504Z,33.00
2018-12-30T07:00:54.207Z,31.70
2018-12-30T07:03:24.790Z,33.30
2018-12-30T07:05:55.369Z,34.53
2018-12-30T07:08:26.610Z,32.23
2018-12-30T07:10:57.145Z,32.57
2018-12-30T07:13:27.875Z,32.20
2018-12-30T07:15:58.302Z,32.17
2018-12-30T07:18:28.816Z,31.47
2018-12-30T07:20:59.476Z,30.47
2018-12-30T07:23:29.940Z,29.17
2018-12-30T07:26:00.375Z,29.00
2018-12-30T07:28:31.253Z,29.67
2018-12-30T07:31:02.109Z,29.50
2018-12-30T07:33:32.520Z,29.13
2018-12-30T07:36:03.310Z,30.33
2018-12-30T07:38:34.106Z,29.90
2018-12-30T07:41:05.074Z,31.27
2018-12-30T07:43:35.509Z,31.90
2018-12-30T07:46:06.019Z,30.87
2018-12-30T07:48:36.724Z,31.90
2018-12-30T07:51:07.214Z,30.13
2018-12-30T07:53:37.791Z,31.50
2018-12-30T07:56:08.254Z,30.63
2018-12-30T07:58:38.865Z,31.37
2018-12-30T08:01:09.298Z,30.37
2018-12-30T08:03:39.898Z,31.23
2018-12-30T08:06:10.334Z,29.80
2018-12-30T08:08:41.400Z,29.90
2018-12-30T08:11:11.802Z,31.93
2018-12-30T08:13:42.556Z,31.20
2018-12-30T08:16:12.949Z,32.57
2018-12-30T08:18:43.819Z,31.47
2018-12-30T08:21:14.320Z,30.63
2018-12-30T08:23:45.186Z,31.67
2018-12-30T08:26:15.908Z,32.60
2018-12-30T08:28:47.386Z,31.90
2018-12-30T08:31:18.004Z,30.77
2018-12-30T08:33:48.543Z,31.80
2018-12-30T08:36:19.280Z,31.00
2018-12-30T08:38:49.930Z,30.80
2018-12-30T08:41:20.618Z,30.03
2018-12-30T08:43:51.250Z,31.13
2018-12-30T08:46:21.661Z,31.50
2018-12-30T08:48:52.053Z,28.50
2018-12-30T08:51:22.617Z,27.97
2018-12-30T08:53:53.205Z,28.83
2018-12-30T08:56:24.033Z,27.37
2018-12-30T08:58:55.487Z,26.80
2018-12-30T09:01:28.307Z,26.23
2018-12-30T09:03:58.482Z,26.33
2018-12-30T09:06:28.980Z,23.83
2018-12-30T09:08:59.442Z,25.00
2018-12-30T09:11:29.894Z,24.37
2018-12-30T09:14:00.699Z,25.10
2018-12-30T09:16:31.141Z,22.40
2018-12-30T09:19:02.109Z,24.40
2018-12-30T09:21:32.507Z,22.47
2018-12-30T09:24:02.951Z,22.53
2018-12-30T09:26:34.049Z,23.27
2018-12-30T09:29:04.797Z,22.00
2018-12-30T09:31:35.303Z,19.83
2018-12-30T09:34:05.976Z,19.23
2018-12-30T09:36:37.155Z,18.50
2018-12-30T09:39:08.502Z,18.30
2018-12-30T09:41:39.093Z,18.13
2018-12-30T09:44:10.033Z,18.60
2018-12-30T09:46:40.739Z,17.83
2018-12-30T09:49:11.737Z,18.77
2018-12-30T09:51:42.647Z,20.27
2018-12-30T09:54:13.271Z,19.27
2018-12-30T09:56:44.001Z,20.30
2018-12-30T09:59:14.612Z,20.00
2018-12-30T10:01:45.155Z,20.50
2018-12-30T10:04:15.619Z,20.30
2018-12-30T10:06:46.277Z,20.83
2018-12-30T10:09:17.079Z,21.23
2018-12-30T10:11:47.700Z,21.20
2018-12-30T10:14:18.307Z,20.57
2018-12-30T10:16:48.867Z,21.67
2018-12-30T10:19:19.329Z,21.07
2018-12-30T10:21:49.916Z,20.23
2018-12-30T10:24:20.340Z,20.40
2018-12-30T10:26:50.878Z,20.30
2018-12-30T10:29:21.566Z,18.77
2018-12-30T10:31:52.138Z,18.53
2018-12-30T10:34:22.914Z,18.47
2018-12-30T10:36:53.386Z,20.17
2018-12-30T10:39:23.978Z,19.20
2018-12-30T10:41:54.464Z,18.40
2018-12-30T10:44:25.102Z,19.37
2018-12-30T10:46:55.913Z,19.83
2018-12-30T10:49:26.548Z,18.90
2018-12-30T10:51:57.613Z,18.50
2018-12-30T10:54:28.157Z,18.33
2018-12-30T10:56:58.899Z,18.20
2018-12-30T10:59:29.333Z,17.50
2018-12-30T11:01:59.899Z,16.70
2018-12-30T11:04:30.755Z,16.57
2018-12-30T11:07:01.208Z,18.10
2018-12-30T11:09:32.091Z,17.90
2018-12-30T11:12:02.722Z,17.73
2018-12-30T11:14:33.439Z,19.10
2018-12-30T11:17:03.953Z,17.00
2018-12-30T11:19:34.875Z,15.70
2018-12-30T11:22:05.324Z,16.93
2018-12-30T11:24:36.153Z,15.83
2018-12-30T11:27:06.681Z,17.17
2018-12-30T11:29:37.085Z,16.57
2018-12-30T11:32:33.658Z,17.10
2018-12-30T11:35:04.748Z,17.30
2018-12-30T11:37:35.646Z,16.67
2018-12-30T11:40:06.824Z,18.20
2018-12-30T11:42:37.608Z,17.27
2018-12-30T11:45:08.370Z,17.70
2018-12-30T11:47:39.283Z,18.00
2018-12-30T11:50:10.410Z,18.13
2018-12-30T11:52:41.382Z,18.10
2018-12-30T11:55:11.904Z,21.03
2018-12-30T11:57:42.798Z,18.47
2018-12-30T12:00:13.358Z,19.30
2018-12-30T12:02:43.888Z,16.47
2018-12-30T12:05:18.400Z,16.53
2018-12-30T12:07:49.080Z,16.40
2018-12-30T12:10:20.030Z,16.17
2018-12-30T12:12:50.553Z,15.93
2018-12-30T12:15:21.468Z,16.00
2018-12-30T12:17:52.104Z,16.00
2018-12-30T12:20:22.575Z,15.93
2018-12-30T12:22:52.964Z,17.23
2018-12-30T12:25:23.794Z,15.10
2018-12-30T12:27:54.319Z,15.47
2018-12-30T12:30:26.134Z,14.67
2018-12-30T12:32:56.810Z,14.43
2018-12-30T12:35:27.258Z,16.07
2018-12-30T12:37:57.982Z,15.57
2018-12-30T12:40:28.933Z,14.30
2018-12-30T12:42:59.527Z,12.20
2018-12-30T12:45:30.297Z,12.80
2018-12-30T12:48:01.032Z,11.83
2018-12-30T12:50:31.569Z,11.93
2018-12-30T12:53:01.999Z,11.57
2018-12-30T12:55:32.532Z,11.73
2018-12-30T12:58:03.474Z,11.33
2018-12-30T13:00:34.145Z,10.73
2018-12-30T13:03:13.598Z,10.10
2018-12-30T13:05:44.186Z,10.03
2018-12-30T13:08:14.941Z,10.70
2018-12-30T13:10:45.669Z,10.80
2018-12-30T13:13:17.042Z,10.90
2018-12-30T13:15:47.663Z,11.60
2018-12-30T13:18:18.520Z,10.47
2018-12-30T13:20:49.388Z,11.33
2018-12-30T13:23:20.186Z,11.97
2018-12-30T13:25:50.626Z,11.30
2018-12-30T13:28:21.326Z,12.87
2018-12-30T13:30:52.014Z,12.43
2018-12-30T13:33:22.730Z,27.80
2018-12-30T13:35:53.249Z,32.83
2018-12-30T13:38:28.269Z,14.60
2018-12-30T13:40:55.751Z,14.13
2018-12-30T13:43:26.298Z,12.33
2018-12-30T13:45:57.001Z,12.00
2018-12-30T13:48:27.643Z,12.27
2018-12-30T13:50:58.214Z,11.40
2018-12-30T13:53:28.951Z,11.90
2018-12-30T13:55:59.539Z,11.80
2018-12-30T13:58:30.514Z,11.17
2018-12-30T14:01:01.151Z,11.73
2018-12-30T14:03:31.896Z,10.27
2018-12-30T14:06:02.438Z,10.23
2018-12-30T14:08:33.073Z,11.40
2018-12-30T14:11:03.446Z,11.33
2018-12-30T14:13:34.121Z,11.43
2018-12-30T14:16:04.525Z,10.70
2018-12-30T14:18:35.309Z,11.40
2018-12-30T14:21:05.847Z,10.77
2018-12-30T14:23:36.264Z,10.87
2018-12-30T14:26:06.762Z,10.70
2018-12-30T14:28:37.471Z,12.70
2018-12-30T14:31:07.895Z,12.37
2018-12-30T14:33:38.560Z,11.93
2018-12-30T14:36:09.156Z,42.10
2018-12-30T14:38:39.955Z,40.23
2018-12-30T14:41:10.451Z,24.00
2018-12-30T14:43:40.932Z,11.63
2018-12-30T14:46:11.391Z,11.13
2018-12-30T14:48:41.960Z,11.53
2018-12-30T14:51:12.694Z,12.03
2018-12-30T14:53:43.319Z,11.30
2018-12-30T14:56:13.837Z,11.73
2018-12-30T14:58:44.584Z,11.97
2018-12-30T15:01:15.607Z,11.40
2018-12-30T15:03:46.082Z,11.83
2018-12-30T15:06:16.670Z,11.67
2018-12-30T15:08:47.106Z,12.50
2018-12-30T15:11:18.033Z,13.07
2018-12-30T15:13:48.532Z,13.30
2018-12-30T15:16:19.031Z,13.77
2018-12-30T15:18:49.434Z,13.17
2018-12-30T15:21:20.027Z,13.70
2018-12-30T15:23:50.471Z,12.77
2018-12-30T15:26:21.730Z,13.03
2018-12-30T15:28:52.169Z,13.67
2018-12-30T15:31:22.931Z,14.13
2018-12-30T15:33:53.382Z,13.63
2018-12-30T15:36:24.054Z,14.83
2018-12-30T15:38:54.694Z,15.73
2018-12-30T15:41:25.168Z,15.50
2018-12-30T15:43:55.831Z,16.00
2018-12-30T15:46:26.805Z,15.67
2018-12-30T15:48:57.421Z,15.27
2018-12-30T15:51:27.871Z,16.70
2018-12-30T15:53:58.622Z,16.03
2018-12-30T15:56:29.148Z,15.03
2018-12-30T15:58:59.659Z,15.77
2018-12-30T16:01:30.374Z,16.33
2018-12-30T16:04:00.979Z,15.67
2018-12-30T16:06:32.014Z,16.23
2018-12-30T16:09:04.241Z,17.20
2018-12-30T16:11:35.175Z,16.70
2018-12-30T16:14:05.692Z,17.57
2018-12-30T16:16:36.126Z,17.37
2018-12-30T16:19:06.735Z,17.93
2018-12-30T16:21:37.292Z,18.23
2018-12-30T16:24:07.810Z,17.57
2018-12-30T16:26:38.593Z,18.57
2018-12-30T16:29:09.237Z,18.07
2018-12-30T16:31:40.010Z,17.33
2018-12-30T16:34:10.407Z,18.80
2018-12-30T16:36:41.200Z,19.03
2018-12-30T16:39:12.234Z,19.83
2018-12-30T16:41:42.875Z,20.30
2018-12-30T16:44:13.810Z,19.93
2018-12-30T16:46:44.376Z,19.87
2018-12-30T16:49:14.933Z,22.10
2018-12-30T16:51:46.250Z,24.57
2018-12-30T16:54:17.023Z,24.03
2018-12-30T16:56:47.543Z,21.97
2018-12-30T16:59:17.946Z,20.87
2018-12-30T17:01:48.630Z,21.80
2018-12-30T17:04:19.056Z,22.83
2018-12-30T17:06:49.663Z,23.10
2018-12-30T17:09:20.428Z,24.47
2018-12-30T17:11:52.847Z,24.87
2018-12-30T17:14:24.304Z,24.30
2018-12-30T17:16:54.779Z,24.37
2018-12-30T17:19:25.223Z,25.60
2018-12-30T17:21:56.931Z,24.30
2018-12-30T17:24:27.980Z,24.93
2018-12-30T17:27:00.795Z,25.70
2018-12-30T17:29:31.316Z,24.33
2018-12-30T17:32:03.271Z,25.70
2018-12-30T17:34:33.762Z,24.83
2018-12-30T17:37:06.404Z,27.50
2018-12-30T17:39:37.612Z,26.70
2018-12-30T17:42:08.901Z,26.97
2018-12-30T17:44:39.745Z,25.13
2018-12-30T17:47:10.681Z,26.70
2018-12-30T17:49:45.374Z,27.37
2018-12-30T17:52:15.963Z,28.70
2018-12-30T17:54:51.276Z,27.83
2018-12-30T17:57:26.862Z,28.00
2018-12-30T17:59:57.665Z,27.63
2018-12-30T18:02:28.407Z,28.97
2018-12-30T18:04:59.017Z,27.63
2018-12-30T18:07:29.871Z,27.60
2018-12-30T18:10:06.785Z,30.47
2018-12-30T18:12:37.688Z,31.10
2018-12-30T18:15:09.994Z,32.00
2018-12-30T18:17:46.473Z,28.03
2018-12-30T18:20:17.395Z,28.47
2018-12-30T18:22:48.279Z,26.23
2018-12-30T18:25:18.986Z,27.43
2018-12-30T18:27:49.529Z,27.47
2018-12-30T18:30:20.408Z,26.33
2018-12-30T18:32:51.645Z,26.90
2018-12-30T18:35:22.443Z,24.27
2018-12-30T18:37:52.919Z,25.57
2018-12-30T18:40:23.744Z,25.50
2018-12-30T18:42:54.278Z,23.63
2018-12-30T18:45:27.870Z,21.67
2018-12-30T18:47:58.790Z,21.97
2018-12-30T18:50:29.685Z,21.60
2018-12-30T18:53:00.227Z,20.70
2018-12-30T18:55:30.613Z,20.87
2018-12-30T18:58:01.122Z,21.53
2018-12-30T19:00:32.051Z,22.13
2018-12-30T19:03:03.133Z,21.47
2018-12-30T19:05:33.532Z,21.83
2018-12-30T19:08:04.125Z,21.23
2018-12-30T19:10:34.550Z,20.93
2018-12-30T19:13:05.042Z,20.27
2018-12-30T19:15:36.080Z,21.03
2018-12-30T19:18:06.803Z,19.23
2018-12-30T19:20:37.618Z,19.90
2018-12-30T19:23:08.502Z,22.03
2018-12-30T19:25:43.602Z,19.50
2018-12-30T19:28:16.970Z,23.13
2018-12-30T19:30:50.058Z,20.87
2018-12-30T19:33:20.773Z,22.17
2018-12-30T19:35:51.581Z,18.73
2018-12-30T19:38:23.403Z,18.10
2018-12-30T19:40:54.308Z,22.33
2018-12-30T19:43:25.474Z,20.47
2018-12-30T19:45:56.111Z,20.00
2018-12-30T19:48:27.701Z,20.10
2018-12-30T19:50:58.840Z,17.50
2018-12-30T19:53:29.520Z,16.50
2018-12-30T19:56:00.047Z,15.40
2018-12-30T19:58:30.889Z,15.83
2018-12-30T20:01:03.591Z,14.53
2018-12-30T20:03:34.986Z,14.30
2018-12-30T20:06:06.664Z,13.53
2018-12-30T20:08:38.719Z,13.13
2018-12-30T20:11:09.386Z,12.73
2018-12-30T20:13:41.776Z,12.20
2018-12-30T20:16:13.314Z,12.40
2018-12-30T20:18:43.961Z,11.47
2018-12-30T20:21:14.723Z,11.53
2018-12-30T20:23:45.702Z,12.13
2018-12-30T20:26:16.439Z,12.60
2018-12-30T20:28:47.334Z,12.30
2018-12-30T20:31:18.090Z,12.70
2018-12-30T20:33:48.948Z,13.97
2018-12-30T20:36:19.556Z,13.30
2018-12-30T20:38:50.293Z,13.53
2018-12-30T20:41:21.181Z,12.77
2018-12-30T20:43:52.109Z,12.50
2018-12-30T20:46:22.588Z,13.13
2018-12-30T20:48:53.355Z,12.10
2018-12-30T20:51:25.445Z,12.87
2018-12-30T20:53:56.610Z,12.50
2018-12-30T20:56:28.392Z,12.13
2018-12-30T20:58:59.175Z,12.40
2018-12-30T21:01:29.937Z,12.20
2018-12-30T21:04:01.020Z,12.90
2018-12-30T21:06:31.547Z,12.13
2018-12-30T21:09:02.240Z,13.17
2018-12-30T21:11:34.409Z,13.07
2018-12-30T21:14:04.964Z,13.40
2018-12-30T21:16:35.820Z,13.40
2018-12-30T21:19:06.689Z,12.77
2018-12-30T21:21:38.879Z,12.87
2018-12-30T21:24:09.674Z,13.47
2018-12-30T21:26:45.301Z,12.60
2018-12-30T21:29:12.675Z,12.40
2018-12-30T21:31:43.282Z,12.73
2018-12-30T21:34:14.169Z,11.13
2018-12-30T21:36:44.751Z,11.97
2018-12-30T21:39:15.245Z,13.00
2018-12-30T21:41:45.869Z,11.83
2018-12-30T21:44:16.826Z,13.83
2018-12-30T21:46:47.433Z,12.53
2018-12-30T21:49:18.584Z,12.97
2018-12-30T21:51:49.405Z,12.57
2018-12-30T21:54:20.170Z,13.77
2018-12-30T21:56:54.734Z,13.83
2018-12-30T21:59:23.540Z,15.07
2018-12-30T22:01:54.379Z,15.17
2018-12-30T22:04:24.856Z,13.00
2018-12-30T22:06:55.710Z,14.60
2018-12-30T22:09:26.599Z,16.47
2018-12-30T22:11:57.283Z,15.60
2018-12-30T22:14:27.898Z,14.40
2018-12-30T22:16:58.728Z,15.87
2018-12-30T22:19:29.679Z,14.63
2018-12-30T22:22:00.327Z,15.30
2018-12-30T22:24:31.151Z,15.00
2018-12-30T22:27:01.913Z,16.07
2018-12-30T22:29:32.651Z,16.07
2018-12-30T22:32:03.126Z,16.33
2018-12-30T22:34:33.869Z,16.20
2018-12-30T22:37:04.987Z,15.47
2018-12-30T22:39:35.927Z,15.63
2018-12-30T22:42:06.632Z,13.90
2018-12-30T22:44:37.364Z,13.80
2018-12-30T22:47:07.891Z,12.27
2018-12-30T22:49:38.813Z,12.03
2018-12-30T22:52:09.241Z,11.77
2018-12-30T22:54:40.717Z,11.30
2018-12-30T22:57:11.257Z,11.53
2018-12-30T22:59:41.878Z,10.17
2018-12-30T23:02:12.378Z,10.67
2018-12-30T23:04:42.921Z,10.30
2018-12-30T23:07:13.539Z,10.63
2018-12-30T23:09:44.236Z,10.70
2018-12-30T23:12:14.783Z,10.70
2018-12-30T23:14:45.284Z,11.13
2018-12-30T23:17:15.819Z,10.40
2018-12-30T23:19:46.886Z,10.43
2018-12-30T23:22:17.398Z,10.53
2018-12-30T23:24:47.860Z,10.30
2018-12-30T23:27:18.339Z,10.03
2018-12-30T23:29:48.983Z,9.73
2018-12-30T23:32:19.491Z,8.83
2018-12-30T23:34:50.069Z,9.33
2018-12-30T23:37:20.543Z,7.67
2018-12-30T23:39:51.540Z,9.00
2018-12-30T23:42:22.247Z,9.40
2018-12-30T23:44:52.673Z,8.03
2018-12-30T23:47:23.275Z,8.37
2018-12-30T23:49:54.167Z,9.13
2018-12-30T23:52:24.851Z,9.97
2018-12-30T23:54:55.551Z,9.30
2018-12-30T23:57:26.304Z,9.93
2018-12-30T23:59:56.672Z,10.03
